createdAt,value
2018-03-14T00:00:23.453Z,22.70
2018-03-14T00:01:23.521Z,22.66
2018-03-14T00:02:23.596Z,22.63
2018-03-14T00:03:23.668Z,22.63
2018-03-14T00:04:23.735Z,22.63
2018-03-14T00:05:23.797Z,22.59
2018-03-14T00:06:23.864Z,22.65
2018-03-14T00:07:23.949Z,22.60
2018-03-14T00:08:24.018Z,22.65
2018-03-14T00:09:24.074Z,22.57
2018-03-14T00:10:24.142Z,22.62
2018-03-14T00:11:24.205Z,22.63
2018-03-14T00:12:24.301Z,22.59
2018-03-14T00:13:24.354Z,22.59
2018-03-14T00:14:24.413Z,22.63
2018-03-14T00:15:24.485Z,22.59
2018-03-14T00:16:24.553Z,22.57
2018-03-14T00:17:24.629Z,22.60
2018-03-14T00:18:24.713Z,22.59
2018-03-14T00:19:24.804Z,22.60
2018-03-14T00:20:24.829Z,22.65
2018-03-14T00:21:24.897Z,22.62
2018-03-14T00:22:24.974Z,22.59
2018-03-14T00:23:25.045Z,22.59
2018-03-14T00:24:25.102Z,22.54
2018-03-14T00:25:25.178Z,22.65
2018-03-14T00:26:25.245Z,22.60
2018-03-14T00:27:25.314Z,22.60
2018-03-14T00:28:25.397Z,22.60
2018-03-14T00:29:25.452Z,22.60
2018-03-14T00:30:25.518Z,22.60
2018-03-14T00:31:25.586Z,22.55
2018-03-14T00:32:25.655Z,22.59
2018-03-14T00:33:25.731Z,22.54
2018-03-14T00:34:25.798Z,22.55
2018-03-14T00:35:25.862Z,22.55
2018-03-14T00:36:25.935Z,22.63
2018-03-14T00:37:25.998Z,22.63
2018-03-14T00:38:26.078Z,22.54
2018-03-14T00:39:26.146Z,22.63
2018-03-14T00:40:26.210Z,22.55
2018-03-14T00:41:26.278Z,22.60
2018-03-14T00:42:26.346Z,22.53
2018-03-14T00:43:26.422Z,22.53
2018-03-14T00:44:26.482Z,22.50
2018-03-14T00:45:26.551Z,22.55
2018-03-14T00:46:26.618Z,22.57
2018-03-14T00:47:26.690Z,22.54
2018-03-14T00:48:26.769Z,22.50
2018-03-14T00:49:26.830Z,22.50
2018-03-14T00:50:26.894Z,22.55
2018-03-14T00:51:26.971Z,22.53
2018-03-14T00:52:27.042Z,22.50
2018-03-14T00:53:27.419Z,22.57
2018-03-14T00:54:27.166Z,22.51
2018-03-14T00:55:27.238Z,22.53
2018-03-14T00:56:27.316Z,22.47
2018-03-14T00:57:27.375Z,22.51
2018-03-14T00:58:27.455Z,22.53
2018-03-14T00:59:27.524Z,22.45
2018-03-14T01:00:27.579Z,22.50
2018-03-14T01:01:27.655Z,22.47
2018-03-14T01:02:27.723Z,22.47
2018-03-14T01:03:27.795Z,22.51
2018-03-14T01:04:27.863Z,22.53
2018-03-14T01:05:27.931Z,22.48
2018-03-14T01:06:28.003Z,22.51
2018-03-14T01:07:28.064Z,22.50
2018-03-14T01:08:28.131Z,22.50
2018-03-14T01:09:28.311Z,22.50
2018-03-14T01:10:28.272Z,22.50
2018-03-14T01:11:28.343Z,22.50
2018-03-14T01:12:28.408Z,22.45
2018-03-14T01:13:28.475Z,22.53
2018-03-14T01:14:28.547Z,22.44
2018-03-14T01:15:28.640Z,22.47
2018-03-14T01:16:28.684Z,22.45
2018-03-14T01:17:28.766Z,22.48
2018-03-14T01:18:28.976Z,22.48
2018-03-14T01:19:28.900Z,22.45
2018-03-14T01:20:28.963Z,22.53
2018-03-14T01:21:29.031Z,22.47
2018-03-14T01:22:29.096Z,22.50
2018-03-14T01:23:29.168Z,22.48
2018-03-14T01:24:29.256Z,22.50
2018-03-14T01:25:29.300Z,22.47
2018-03-14T01:26:29.372Z,22.50
2018-03-14T01:27:29.444Z,22.48
2018-03-14T01:28:29.508Z,22.51
2018-03-14T01:29:29.584Z,22.50
2018-03-14T01:30:29.656Z,22.50
2018-03-14T01:31:29.720Z,22.45
2018-03-14T01:32:29.784Z,22.50
2018-03-14T01:33:29.860Z,22.57
2018-03-14T01:34:29.962Z,22.45
2018-03-14T01:35:29.997Z,22.55
2018-03-14T01:36:30.072Z,22.44
2018-03-14T01:37:30.129Z,22.54
2018-03-14T01:38:30.197Z,22.51
2018-03-14T01:39:30.261Z,22.54
2018-03-14T01:40:30.537Z,22.54
2018-03-14T01:41:30.412Z,22.55
2018-03-14T01:42:30.472Z,22.47
2018-03-14T01:43:30.541Z,22.50
2018-03-14T01:44:30.613Z,22.47
2018-03-14T01:45:30.685Z,22.43
2018-03-14T01:46:30.762Z,22.44
2018-03-14T01:47:30.817Z,22.45
2018-03-14T01:48:30.889Z,22.47
2018-03-14T01:49:30.953Z,22.50
2018-03-14T01:50:31.035Z,22.44
2018-03-14T01:51:31.097Z,22.45
2018-03-14T01:52:31.161Z,22.35
2018-03-14T01:53:31.229Z,22.48
2018-03-14T01:54:31.301Z,22.45
2018-03-14T01:55:31.373Z,22.44
2018-03-14T01:56:31.445Z,22.47
2018-03-14T01:57:31.501Z,22.48
2018-03-14T01:58:31.578Z,22.47
2018-03-14T01:59:31.645Z,22.51
2018-03-14T02:00:31.721Z,22.50
2018-03-14T02:01:31.785Z,22.47
2018-03-14T02:02:31.845Z,22.44
2018-03-14T02:03:31.914Z,22.41
2018-03-14T02:04:31.986Z,22.51
2018-03-14T02:05:32.061Z,22.51
2018-03-14T02:06:32.129Z,22.48
2018-03-14T02:07:32.196Z,22.53
2018-03-14T02:08:32.266Z,22.39
2018-03-14T02:09:32.330Z,22.55
2018-03-14T02:10:32.410Z,22.44
2018-03-14T02:11:32.473Z,22.50
2018-03-14T02:12:32.534Z,22.48
2018-03-14T02:13:32.606Z,22.47
2018-03-14T02:14:32.673Z,22.48
2018-03-14T02:15:32.756Z,22.41
2018-03-14T02:16:32.817Z,22.36
2018-03-14T02:17:32.877Z,22.41
2018-03-14T02:18:32.950Z,22.47
2018-03-14T02:19:33.018Z,22.48
2018-03-14T02:20:33.114Z,22.45
2018-03-14T02:21:33.154Z,22.43
2018-03-14T02:22:33.227Z,22.48
2018-03-14T02:23:33.290Z,22.45
2018-03-14T02:24:33.362Z,22.47
2018-03-14T02:25:33.434Z,22.45
2018-03-14T02:26:33.511Z,22.50
2018-03-14T02:27:33.566Z,22.47
2018-03-14T02:28:33.634Z,22.43
2018-03-14T02:29:33.702Z,22.50
2018-03-14T02:30:33.778Z,22.45
2018-03-14T02:31:33.847Z,22.45
2018-03-14T02:32:33.914Z,22.41
2018-03-14T02:33:33.982Z,22.45
2018-03-14T02:34:34.051Z,22.50
2018-03-14T02:35:34.146Z,22.45
2018-03-14T02:36:34.195Z,22.47
2018-03-14T02:37:34.255Z,22.33
2018-03-14T02:38:34.323Z,22.36
2018-03-14T02:39:34.395Z,22.44
2018-03-14T02:40:34.467Z,22.47
2018-03-14T02:41:34.535Z,22.47
2018-03-14T02:42:34.599Z,22.47
2018-03-14T02:43:34.666Z,22.44
2018-03-14T02:44:34.734Z,22.38
2018-03-14T02:45:34.812Z,22.47
2018-03-14T02:46:34.878Z,22.43
2018-03-14T02:47:34.943Z,22.45
2018-03-14T02:48:35.014Z,22.47
2018-03-14T02:49:35.083Z,22.32
2018-03-14T02:50:35.163Z,22.32
2018-03-14T02:51:35.218Z,22.35
2018-03-14T02:52:35.296Z,22.43
2018-03-14T02:53:35.355Z,22.44
2018-03-14T02:54:35.424Z,22.39
2018-03-14T02:55:35.500Z,22.41
2018-03-14T02:56:35.568Z,22.35
2018-03-14T02:57:35.635Z,22.41
2018-03-14T02:58:35.700Z,22.35
2018-03-14T02:59:35.768Z,22.36
2018-03-14T03:00:35.843Z,22.36
2018-03-14T03:01:35.915Z,22.36
2018-03-14T03:02:35.979Z,22.39
2018-03-14T03:03:36.048Z,22.38
2018-03-14T03:04:36.112Z,22.48
2018-03-14T03:05:36.291Z,22.39
2018-03-14T03:06:36.248Z,22.41
2018-03-14T03:07:36.316Z,22.36
2018-03-14T03:08:36.389Z,22.38
2018-03-14T03:09:36.459Z,22.36
2018-03-14T03:10:36.536Z,22.48
2018-03-14T03:11:36.600Z,22.32
2018-03-14T03:12:36.664Z,22.33
2018-03-14T03:13:36.728Z,22.36
2018-03-14T03:14:36.800Z,22.33
2018-03-14T03:15:36.872Z,22.44
2018-03-14T03:16:36.976Z,22.48
2018-03-14T03:17:37.004Z,22.36
2018-03-14T03:18:37.072Z,22.38
2018-03-14T03:19:37.144Z,22.33
2018-03-14T03:20:37.364Z,22.45
2018-03-14T03:21:37.285Z,22.35
2018-03-14T03:22:37.348Z,22.44
2018-03-14T03:23:37.419Z,22.29
2018-03-14T03:24:37.489Z,22.38
2018-03-14T03:25:37.560Z,22.33
2018-03-14T03:26:37.637Z,22.36
2018-03-14T03:27:37.693Z,22.32
2018-03-14T03:28:37.761Z,22.41
2018-03-14T03:29:37.832Z,22.35
2018-03-14T03:30:37.905Z,22.36
2018-03-14T03:31:37.974Z,22.33
2018-03-14T03:32:38.036Z,22.36
2018-03-14T03:33:38.105Z,22.38
2018-03-14T03:34:38.177Z,22.35
2018-03-14T03:35:38.444Z,22.33
2018-03-14T03:36:38.313Z,22.38
2018-03-14T03:37:38.385Z,22.35
2018-03-14T03:38:38.449Z,22.41
2018-03-14T03:39:38.517Z,22.30
2018-03-14T03:40:38.599Z,22.33
2018-03-14T03:41:38.662Z,22.43
2018-03-14T03:42:38.729Z,22.32
2018-03-14T03:43:38.793Z,22.35
2018-03-14T03:44:38.861Z,22.39
2018-03-14T03:45:38.937Z,22.36
2018-03-14T03:46:39.018Z,22.36
2018-03-14T03:47:39.069Z,22.33
2018-03-14T03:48:39.137Z,22.35
2018-03-14T03:49:39.210Z,22.36
2018-03-14T03:50:39.454Z,22.36
2018-03-14T03:51:39.346Z,22.30
2018-03-14T03:52:39.414Z,22.32
2018-03-14T03:53:39.496Z,22.32
2018-03-14T03:54:39.550Z,22.33
2018-03-14T03:55:39.673Z,22.32
2018-03-14T03:56:39.697Z,22.33
2018-03-14T03:57:39.758Z,22.32
2018-03-14T03:58:39.834Z,22.32
2018-03-14T03:59:39.896Z,22.26
2018-03-14T04:00:39.976Z,22.32
2018-03-14T04:01:40.037Z,22.33
2018-03-14T04:02:40.102Z,22.32
2018-03-14T04:03:40.170Z,22.41
2018-03-14T04:04:40.242Z,22.30
2018-03-14T04:05:40.306Z,22.39
2018-03-14T04:06:40.394Z,22.32
2018-03-14T04:07:40.450Z,22.33
2018-03-14T04:08:40.515Z,22.33
2018-03-14T04:09:40.587Z,22.33
2018-03-14T04:10:40.654Z,22.32
2018-03-14T04:11:40.735Z,22.35
2018-03-14T04:12:40.795Z,22.30
2018-03-14T04:13:40.855Z,22.32
2018-03-14T04:14:40.927Z,22.26
2018-03-14T04:15:40.995Z,22.32
2018-03-14T04:16:41.072Z,22.33
2018-03-14T04:17:41.143Z,22.26
2018-03-14T04:18:41.208Z,22.29
2018-03-14T04:19:41.267Z,22.30
2018-03-14T04:20:41.335Z,22.32
2018-03-14T04:21:41.423Z,22.33
2018-03-14T04:22:41.479Z,22.30
2018-03-14T04:23:41.542Z,22.41
2018-03-14T04:24:41.658Z,22.41
2018-03-14T04:25:41.683Z,22.32
2018-03-14T04:26:41.758Z,22.39
2018-03-14T04:27:41.823Z,22.30
2018-03-14T04:28:41.891Z,22.30
2018-03-14T04:29:41.955Z,22.36
2018-03-14T04:30:42.019Z,22.35
2018-03-14T04:31:42.256Z,22.35
2018-03-14T04:32:42.159Z,22.36
2018-03-14T04:33:42.229Z,22.36
2018-03-14T04:34:42.299Z,22.33
2018-03-14T04:35:42.367Z,22.32
2018-03-14T04:36:42.443Z,22.32
2018-03-14T04:37:42.515Z,22.26
2018-03-14T04:38:42.571Z,22.28
2018-03-14T04:39:42.639Z,22.32
2018-03-14T04:40:42.712Z,22.26
2018-03-14T04:41:44.519Z,22.39
2018-03-14T04:42:42.848Z,22.29
2018-03-14T04:43:42.916Z,22.29
2018-03-14T04:44:42.992Z,22.41
2018-03-14T04:45:43.056Z,22.39
2018-03-14T04:46:43.123Z,22.39
2018-03-14T04:47:43.343Z,22.25
2018-03-14T04:48:43.260Z,22.35
2018-03-14T04:49:43.327Z,22.32
2018-03-14T04:50:43.399Z,22.28
2018-03-14T04:51:43.468Z,22.35
2018-03-14T04:52:43.544Z,22.38
2018-03-14T04:53:43.608Z,22.39
2018-03-14T04:54:43.676Z,22.29
2018-03-14T04:55:43.744Z,22.32
2018-03-14T04:56:43.808Z,22.35
2018-03-14T04:57:43.880Z,22.30
2018-03-14T04:58:43.952Z,22.36
2018-03-14T04:59:44.012Z,22.36
2018-03-14T05:00:44.085Z,22.38
2018-03-14T05:01:44.165Z,22.32
2018-03-14T05:02:44.245Z,22.32
2018-03-14T05:03:44.289Z,22.44
2018-03-14T05:04:44.357Z,22.45
2018-03-14T05:05:44.425Z,22.51
2018-03-14T05:06:44.493Z,22.50
2018-03-14T05:07:44.569Z,22.48
2018-03-14T05:08:44.641Z,22.48
2018-03-14T05:09:44.700Z,22.47
2018-03-14T05:10:44.773Z,22.54
2018-03-14T05:11:44.837Z,22.53
2018-03-14T05:12:44.913Z,22.57
2018-03-14T05:13:44.981Z,22.55
2018-03-14T05:14:45.045Z,22.57
2018-03-14T05:15:45.117Z,22.57
2018-03-14T05:16:45.181Z,22.63
2018-03-14T05:17:45.261Z,22.66
2018-03-14T05:18:45.337Z,22.57
2018-03-14T05:19:45.390Z,22.70
2018-03-14T05:20:45.465Z,22.68
2018-03-14T05:21:45.525Z,22.65
2018-03-14T05:22:45.614Z,22.72
2018-03-14T05:23:45.671Z,22.72
2018-03-14T05:24:45.738Z,22.68
2018-03-14T05:25:45.802Z,22.73
2018-03-14T05:26:45.890Z,22.70
2018-03-14T05:27:45.938Z,22.78
2018-03-14T05:28:46.014Z,22.76
2018-03-14T05:29:46.087Z,22.76
2018-03-14T05:30:46.149Z,22.78
2018-03-14T05:31:46.250Z,22.75
2018-03-14T05:32:46.290Z,22.80
2018-03-14T05:33:46.358Z,22.69
2018-03-14T05:34:46.437Z,22.80
2018-03-14T05:35:46.490Z,22.80
2018-03-14T05:36:46.565Z,22.72
2018-03-14T05:37:46.638Z,22.78
2018-03-14T05:38:46.702Z,22.72
2018-03-14T05:39:46.766Z,22.75
2018-03-14T05:40:46.834Z,22.81
2018-03-14T05:41:46.909Z,22.72
2018-03-14T05:42:46.977Z,22.87
2018-03-14T05:43:47.049Z,22.84
2018-03-14T05:44:47.118Z,22.85
2018-03-14T05:45:47.178Z,22.90
2018-03-14T05:46:47.251Z,22.91
2018-03-14T05:47:47.359Z,22.93
2018-03-14T05:48:47.410Z,22.90
2018-03-14T05:49:47.463Z,22.96
2018-03-14T05:50:47.521Z,22.90
2018-03-14T05:51:47.586Z,22.85
2018-03-14T05:52:47.656Z,22.90
2018-03-14T05:53:47.783Z,22.85
2018-03-14T05:54:47.827Z,22.90
2018-03-14T05:55:47.898Z,22.85
2018-03-14T05:56:47.935Z,22.87
2018-03-14T05:57:48.006Z,22.87
2018-03-14T05:58:48.249Z,22.87
2018-03-14T05:59:48.134Z,22.83
2018-03-14T06:00:48.215Z,22.85
2018-03-14T06:01:48.319Z,22.91
2018-03-14T06:02:48.355Z,22.93
2018-03-14T06:03:48.434Z,22.85
2018-03-14T06:04:48.499Z,22.93
2018-03-14T06:05:48.572Z,22.93
2018-03-14T06:06:48.627Z,22.85
2018-03-14T06:07:48.691Z,22.93
2018-03-14T06:08:48.775Z,22.93
2018-03-14T06:09:48.839Z,22.94
2018-03-14T06:10:48.911Z,22.93
2018-03-14T06:11:48.991Z,22.94
2018-03-14T06:12:49.047Z,22.94
2018-03-14T06:13:49.211Z,22.96
2018-03-14T06:14:49.181Z,22.91
2018-03-14T06:15:49.239Z,22.98
2018-03-14T06:16:49.316Z,23.00
2018-03-14T06:17:49.383Z,22.96
2018-03-14T06:18:49.463Z,22.96
2018-03-14T06:19:49.536Z,22.94
2018-03-14T06:20:49.604Z,23.00
2018-03-14T06:21:49.668Z,22.99
2018-03-14T06:22:49.732Z,22.94
2018-03-14T06:23:49.844Z,23.00
2018-03-14T06:24:49.879Z,23.02
2018-03-14T06:25:50.017Z,23.03
2018-03-14T06:26:50.012Z,22.94
2018-03-14T06:27:50.084Z,22.99
2018-03-14T06:28:50.163Z,22.93
2018-03-14T06:29:50.274Z,23.00
2018-03-14T06:30:50.304Z,22.91
2018-03-14T06:31:50.340Z,22.91
2018-03-14T06:32:50.417Z,22.91
2018-03-14T06:33:50.507Z,22.93
2018-03-14T06:34:50.640Z,22.98
2018-03-14T06:35:50.628Z,22.91
2018-03-14T06:36:50.757Z,22.94
2018-03-14T06:37:50.764Z,23.02
2018-03-14T06:38:50.840Z,22.94
2018-03-14T06:39:50.900Z,22.94
2018-03-14T06:40:50.964Z,22.94
2018-03-14T06:41:51.036Z,22.93
2018-03-14T06:42:51.112Z,22.91
2018-03-14T06:43:51.212Z,22.94
2018-03-14T06:44:51.258Z,22.87
2018-03-14T06:45:51.316Z,22.93
2018-03-14T06:46:51.389Z,22.93
2018-03-14T06:47:51.449Z,22.90
2018-03-14T06:48:51.565Z,22.93
2018-03-14T06:49:51.593Z,22.85
2018-03-14T06:50:51.657Z,22.88
2018-03-14T06:51:51.721Z,22.85
2018-03-14T06:52:51.797Z,22.90
2018-03-14T06:53:51.897Z,22.88
2018-03-14T06:54:51.952Z,22.90
2018-03-14T06:55:52.005Z,22.85
2018-03-14T06:56:52.077Z,22.91
2018-03-14T06:57:52.145Z,22.90
2018-03-14T06:58:52.373Z,22.94
2018-03-14T06:59:52.317Z,22.88
2018-03-14T07:00:52.337Z,22.87
2018-03-14T07:01:52.425Z,22.93
2018-03-14T07:02:52.477Z,22.83
2018-03-14T07:03:52.566Z,22.88
2018-03-14T07:04:52.671Z,22.91
2018-03-14T07:05:52.685Z,22.91
2018-03-14T07:06:52.789Z,22.85
2018-03-14T07:07:52.818Z,22.84
2018-03-14T07:08:52.901Z,22.85
2018-03-14T07:09:52.973Z,22.87
2018-03-14T07:10:53.034Z,22.84
2018-03-14T07:11:53.144Z,22.75
2018-03-14T07:12:53.174Z,22.81
2018-03-14T07:13:53.438Z,22.78
2018-03-14T07:14:53.534Z,22.75
2018-03-14T07:15:53.365Z,22.75
2018-03-14T07:16:53.438Z,22.70
2018-03-14T07:17:53.506Z,22.76
2018-03-14T07:18:53.586Z,22.80
2018-03-14T07:19:53.654Z,22.78
2018-03-14T07:20:53.718Z,22.76
2018-03-14T07:21:53.782Z,22.78
2018-03-14T07:22:53.850Z,22.80
2018-03-14T07:23:53.930Z,22.75
2018-03-14T07:24:53.995Z,22.75
2018-03-14T07:25:54.058Z,22.75
2018-03-14T07:26:54.170Z,22.76
2018-03-14T07:27:54.199Z,22.73
2018-03-14T07:28:54.382Z,22.78
2018-03-14T07:29:54.342Z,22.81
2018-03-14T07:30:54.402Z,22.73
2018-03-14T07:31:54.470Z,22.73
2018-03-14T07:32:54.539Z,22.73
2018-03-14T07:33:54.615Z,22.78
2018-03-14T07:34:54.683Z,22.73
2018-03-14T07:35:54.742Z,22.69
2018-03-14T07:36:54.810Z,22.80
2018-03-14T07:37:54.878Z,22.76
2018-03-14T07:38:54.958Z,22.66
2018-03-14T07:39:55.031Z,22.73
2018-03-14T07:40:55.088Z,22.75
2018-03-14T07:41:55.162Z,22.72
2018-03-14T07:42:55.226Z,22.72
2018-03-14T07:43:55.446Z,22.70
2018-03-14T07:44:55.358Z,22.69
2018-03-14T07:45:55.435Z,22.69
2018-03-14T07:46:55.500Z,22.69
2018-03-14T07:47:55.581Z,22.70
2018-03-14T07:48:55.639Z,22.66
2018-03-14T07:49:55.715Z,22.62
2018-03-14T07:50:55.776Z,22.60
2018-03-14T07:51:55.844Z,22.54
2018-03-14T07:52:55.911Z,22.51
2018-03-14T07:53:55.984Z,22.55
2018-03-14T07:54:56.063Z,22.53
2018-03-14T07:55:56.115Z,22.57
2018-03-14T07:56:56.184Z,22.51
2018-03-14T07:57:56.256Z,22.57
2018-03-14T07:58:56.356Z,22.51
2018-03-14T07:59:56.403Z,22.59
2018-03-14T08:00:56.451Z,22.60
2018-03-14T08:01:56.543Z,22.57
2018-03-14T08:02:56.593Z,22.62
2018-03-14T08:03:56.660Z,22.57
2018-03-14T08:04:56.732Z,22.55
2018-03-14T08:05:56.801Z,22.59
2018-03-14T08:06:56.859Z,22.60
2018-03-14T08:07:56.940Z,22.59
2018-03-14T08:08:56.998Z,22.54
2018-03-14T08:09:57.068Z,22.60
2018-03-14T08:10:57.141Z,22.62
2018-03-14T08:11:57.206Z,22.59
2018-03-14T08:12:57.276Z,22.60
2018-03-14T08:13:57.351Z,22.59
2018-03-14T08:14:57.408Z,22.63
2018-03-14T08:15:57.480Z,22.54
2018-03-14T08:16:57.536Z,22.63
2018-03-14T08:17:57.604Z,22.59
2018-03-14T08:18:57.684Z,22.60
2018-03-14T08:19:57.748Z,22.55
2018-03-14T08:20:57.817Z,22.60
2018-03-14T08:21:57.884Z,22.57
2018-03-14T08:22:57.945Z,22.54
2018-03-14T08:23:58.017Z,22.60
2018-03-14T08:24:58.232Z,22.55
2018-03-14T08:25:58.201Z,22.55
2018-03-14T08:26:58.216Z,22.53
2018-03-14T08:27:58.288Z,22.54
2018-03-14T08:28:58.352Z,22.59
2018-03-14T08:29:58.444Z,22.55
2018-03-14T08:30:58.501Z,22.63
2018-03-14T08:31:58.561Z,22.60
2018-03-14T08:32:58.624Z,22.55
2018-03-14T08:33:58.699Z,22.60
2018-03-14T08:34:58.769Z,22.57
2018-03-14T08:35:58.852Z,22.60
2018-03-14T08:36:58.897Z,22.66
2018-03-14T08:37:58.965Z,22.54
2018-03-14T08:38:59.037Z,22.59
2018-03-14T08:39:59.117Z,22.53
2018-03-14T08:40:59.177Z,22.60
2018-03-14T08:41:59.237Z,22.54
2018-03-14T08:42:59.313Z,22.60
2018-03-14T08:43:59.378Z,22.57
2018-03-14T08:44:59.449Z,22.62
2018-03-14T08:45:59.513Z,22.60
2018-03-14T08:46:59.577Z,22.60
2018-03-14T08:47:59.649Z,22.57
2018-03-14T08:48:59.713Z,22.57
2018-03-14T08:49:59.786Z,22.53
2018-03-14T08:50:59.854Z,22.60
2018-03-14T08:51:59.917Z,22.60
2018-03-14T08:52:59.985Z,22.55
2018-03-14T08:54:00.053Z,22.55
2018-03-14T08:55:00.238Z,22.54
2018-03-14T08:56:00.190Z,22.54
2018-03-14T08:57:00.258Z,22.54
2018-03-14T08:58:00.326Z,22.65
2018-03-14T08:59:00.394Z,22.54
2018-03-14T09:00:00.466Z,22.51
2018-03-14T09:01:00.534Z,22.60
2018-03-14T09:02:00.598Z,22.54
2018-03-14T09:03:00.667Z,22.50
2018-03-14T09:04:00.734Z,22.54
2018-03-14T09:05:00.809Z,22.54
2018-03-14T09:06:00.878Z,22.57
2018-03-14T09:07:00.938Z,22.54
2018-03-14T09:08:01.010Z,22.53
2018-03-14T09:09:01.074Z,22.53
2018-03-14T09:10:01.148Z,22.54
2018-03-14T09:11:01.226Z,22.62
2018-03-14T09:12:01.278Z,22.53
2018-03-14T09:13:01.349Z,22.50
2018-03-14T09:14:01.414Z,22.54
2018-03-14T09:15:01.482Z,22.54
2018-03-14T09:16:01.559Z,22.53
2018-03-14T09:17:01.626Z,22.60
2018-03-14T09:18:01.686Z,22.50
2018-03-14T09:19:01.758Z,22.57
2018-03-14T09:20:01.823Z,22.59
2018-03-14T09:21:01.894Z,22.55
2018-03-14T09:22:01.971Z,22.57
2018-03-14T09:23:02.029Z,22.55
2018-03-14T09:24:02.097Z,22.55
2018-03-14T09:25:02.166Z,22.51
2018-03-14T09:26:02.231Z,22.47
2018-03-14T09:27:02.507Z,22.48
2018-03-14T09:28:02.371Z,22.53
2018-03-14T09:29:02.439Z,22.54
2018-03-14T09:30:02.504Z,22.50
2018-03-14T09:31:02.575Z,22.55
2018-03-14T09:32:02.648Z,22.55
2018-03-14T09:33:02.712Z,22.53
2018-03-14T09:34:02.775Z,22.57
2018-03-14T09:35:02.845Z,22.53
2018-03-14T09:36:02.911Z,22.51
2018-03-14T09:37:02.983Z,22.53
2018-03-14T09:38:03.052Z,22.50
2018-03-14T09:39:03.115Z,22.47
2018-03-14T09:40:03.191Z,22.50
2018-03-14T09:41:03.257Z,22.51
2018-03-14T09:42:03.319Z,22.51
2018-03-14T09:43:03.407Z,22.44
2018-03-14T09:44:03.452Z,22.45
2018-03-14T09:45:03.520Z,22.45
2018-03-14T09:46:03.639Z,22.47
2018-03-14T09:47:03.660Z,22.47
2018-03-14T09:48:03.732Z,22.50
2018-03-14T09:49:03.800Z,22.45
2018-03-14T09:50:03.859Z,22.45
2018-03-14T09:51:03.929Z,22.50
2018-03-14T09:52:03.995Z,22.50
2018-03-14T09:53:04.072Z,22.48
2018-03-14T09:54:04.144Z,22.53
2018-03-14T09:55:04.204Z,22.53
2018-03-14T09:56:04.268Z,22.50
2018-03-14T09:57:04.336Z,22.55
2018-03-14T09:58:04.412Z,22.51
2018-03-14T09:59:04.481Z,22.53
2018-03-14T10:00:04.541Z,22.48
2018-03-14T10:01:04.612Z,22.53
2018-03-14T10:02:04.676Z,22.51
2018-03-14T10:03:04.757Z,22.47
2018-03-14T10:04:04.820Z,22.54
2018-03-14T10:05:04.880Z,22.50
2018-03-14T10:06:04.948Z,22.53
2018-03-14T10:07:05.018Z,22.48
2018-03-14T10:08:05.237Z,22.55
2018-03-14T10:09:05.171Z,22.53
2018-03-14T10:10:05.225Z,22.45
2018-03-14T10:11:05.293Z,22.48
2018-03-14T10:12:05.357Z,22.48
2018-03-14T10:13:05.432Z,22.53
2018-03-14T10:14:05.499Z,22.57
2018-03-14T10:15:05.565Z,22.54
2018-03-14T10:16:05.625Z,22.50
2018-03-14T10:17:05.695Z,22.50
2018-03-14T10:18:05.769Z,22.44
2018-03-14T10:19:05.883Z,22.51
2018-03-14T10:20:05.897Z,22.53
2018-03-14T10:21:05.965Z,22.53
2018-03-14T10:22:06.037Z,22.51
2018-03-14T10:23:06.437Z,22.48
2018-03-14T10:24:06.169Z,22.48
2018-03-14T10:25:06.237Z,22.51
2018-03-14T10:26:06.307Z,22.51
2018-03-14T10:27:06.373Z,22.54
2018-03-14T10:28:06.445Z,22.53
2018-03-14T10:29:06.548Z,22.50
2018-03-14T10:30:06.573Z,22.48
2018-03-14T10:31:06.645Z,22.54
2018-03-14T10:32:06.710Z,22.47
2018-03-14T10:33:06.778Z,22.50
2018-03-14T10:34:06.854Z,22.47
2018-03-14T10:35:06.921Z,22.51
2018-03-14T10:36:06.981Z,22.50
2018-03-14T10:37:07.054Z,22.44
2018-03-14T10:38:07.117Z,22.48
2018-03-14T10:39:07.290Z,22.53
2018-03-14T10:40:07.254Z,22.48
2018-03-14T10:41:07.352Z,22.50
2018-03-14T10:42:07.393Z,22.47
2018-03-14T10:43:07.458Z,22.45
2018-03-14T10:44:07.529Z,22.47
2018-03-14T10:45:07.598Z,22.50
2018-03-14T10:46:07.658Z,22.50
2018-03-14T10:47:07.726Z,22.54
2018-03-14T10:48:07.794Z,22.50
2018-03-14T10:49:07.872Z,22.51
2018-03-14T10:50:07.938Z,22.50
2018-03-14T10:51:07.998Z,22.48
2018-03-14T10:52:08.066Z,22.53
2018-03-14T10:53:08.141Z,22.51
2018-03-14T10:54:08.363Z,22.48
2018-03-14T10:55:08.270Z,22.47
2018-03-14T10:56:08.335Z,22.53
2018-03-14T10:57:08.402Z,22.51
2018-03-14T10:58:08.470Z,22.47
2018-03-14T10:59:08.547Z,22.50
2018-03-14T11:00:08.630Z,22.51
2018-03-14T11:01:08.677Z,22.45
2018-03-14T11:02:08.743Z,22.48
2018-03-14T11:03:08.810Z,22.51
2018-03-14T11:04:08.883Z,22.41
2018-03-14T11:05:08.959Z,22.48
2018-03-14T11:06:09.015Z,22.47
2018-03-14T11:07:09.082Z,22.43
2018-03-14T11:08:09.151Z,22.47
2018-03-14T11:09:09.471Z,22.47
2018-03-14T11:10:09.287Z,22.48
2018-03-14T11:11:09.362Z,22.54
2018-03-14T11:12:09.419Z,22.48
2018-03-14T11:13:09.491Z,22.39
2018-03-14T11:14:09.563Z,22.39
2018-03-14T11:15:09.631Z,22.48
2018-03-14T11:16:09.691Z,22.48
2018-03-14T11:17:09.767Z,22.44
2018-03-14T11:18:09.833Z,22.44
2018-03-14T11:19:09.907Z,22.53
2018-03-14T11:20:09.971Z,22.44
2018-03-14T11:21:10.036Z,22.44
2018-03-14T11:22:10.100Z,22.55
2018-03-14T11:23:10.172Z,22.51
2018-03-14T11:24:10.388Z,22.51
2018-03-14T11:25:10.308Z,22.48
2018-03-14T11:26:10.372Z,22.39
2018-03-14T11:27:10.439Z,22.44
2018-03-14T11:28:10.508Z,22.50
2018-03-14T11:29:10.580Z,22.51
2018-03-14T11:30:10.648Z,22.38
2018-03-14T11:31:10.716Z,22.38
2018-03-14T11:32:10.780Z,22.48
2018-03-14T11:33:10.844Z,22.50
2018-03-14T11:34:10.927Z,22.48
2018-03-14T11:35:10.991Z,22.36
2018-03-14T11:36:11.052Z,22.53
2018-03-14T11:37:11.121Z,22.43
2018-03-14T11:38:11.188Z,22.47
2018-03-14T11:39:11.252Z,22.47
2018-03-14T11:40:11.564Z,22.50
2018-03-14T11:41:11.387Z,22.45
2018-03-14T11:42:11.456Z,22.51
2018-03-14T11:43:11.526Z,22.43
2018-03-14T11:44:11.593Z,22.39
2018-03-14T11:45:11.665Z,22.44
2018-03-14T11:46:11.732Z,22.39
2018-03-14T11:47:11.829Z,22.47
2018-03-14T11:48:11.873Z,22.39
2018-03-14T11:49:11.961Z,22.43
2018-03-14T11:50:12.002Z,22.48
2018-03-14T11:51:12.069Z,22.48
2018-03-14T11:52:12.133Z,22.45
2018-03-14T11:53:12.200Z,22.44
2018-03-14T11:54:12.264Z,22.45
2018-03-14T11:55:12.333Z,22.39
2018-03-14T11:56:12.429Z,22.39
2018-03-14T11:57:12.473Z,22.48
2018-03-14T11:58:12.537Z,22.35
2018-03-14T11:59:12.604Z,22.48
2018-03-14T12:00:12.673Z,22.33
2018-03-14T12:01:12.753Z,22.43
2018-03-14T12:02:12.817Z,22.45
2018-03-14T12:03:12.885Z,22.33
2018-03-14T12:04:12.940Z,22.48
2018-03-14T12:05:13.009Z,22.35
2018-03-14T12:06:13.105Z,22.39
2018-03-14T12:07:13.144Z,22.51
2018-03-14T12:08:13.217Z,22.48
2018-03-14T12:09:13.281Z,22.45
2018-03-14T12:10:13.384Z,22.48
2018-03-14T12:11:13.433Z,22.51
2018-03-14T12:12:13.490Z,22.48
2018-03-14T12:13:13.553Z,22.54
2018-03-14T12:14:13.625Z,22.38
2018-03-14T12:15:13.690Z,22.45
2018-03-14T12:16:13.785Z,22.54
2018-03-14T12:17:13.829Z,22.50
2018-03-14T12:18:13.890Z,22.44
2018-03-14T12:19:13.958Z,22.43
2018-03-14T12:20:14.026Z,22.44
2018-03-14T12:21:14.206Z,22.44
2018-03-14T12:22:14.162Z,22.36
2018-03-14T12:23:14.229Z,22.43
2018-03-14T12:24:14.298Z,22.47
2018-03-14T12:25:14.365Z,22.48
2018-03-14T12:26:14.491Z,22.48
2018-03-14T12:27:14.510Z,22.51
2018-03-14T12:28:14.570Z,22.48
2018-03-14T12:29:14.634Z,22.41
2018-03-14T12:30:14.702Z,22.55
2018-03-14T12:31:14.783Z,22.48
2018-03-14T12:32:14.846Z,22.44
2018-03-14T12:33:14.906Z,22.47
2018-03-14T12:34:14.974Z,22.48
2018-03-14T12:35:15.046Z,22.50
2018-03-14T12:36:15.134Z,22.48
2018-03-14T12:37:15.178Z,22.38
2018-03-14T12:38:15.247Z,22.47
2018-03-14T12:39:15.314Z,22.47
2018-03-14T12:40:15.378Z,22.50
2018-03-14T12:41:15.455Z,22.45
2018-03-14T12:42:15.589Z,22.47
2018-03-14T12:43:15.586Z,22.51
2018-03-14T12:44:15.651Z,22.50
2018-03-14T12:45:15.719Z,22.50
2018-03-14T12:46:15.796Z,22.48
2018-03-14T12:47:15.861Z,22.51
2018-03-14T12:48:15.919Z,22.47
2018-03-14T12:49:15.987Z,22.45
2018-03-14T12:50:16.055Z,22.57
2018-03-14T12:51:16.239Z,22.48
2018-03-14T12:52:16.191Z,22.51
2018-03-14T12:53:16.259Z,22.50